FLIGHT INFORMATION
United Airlines

UAL3477

At Arrival Gate

KIAD
 KDEN
DATE: 2019-11-17
GATE: B66
GATE DEPARTURE: 13:39
TAKEOFF: 13:48
DATE: 2019-11-18
GATE:  -
LANDING: 17:06
GATE ARRIVAL: 17:18
FLIGHT DATA
Crew: AARON BUCHANAN
Speed: 461 kts Altitude: 36000 ft
Stage Length: 1259 nm
Route: 
Block Time: 3.7 Flight Time: 3.3
Fuel Used: 19144 LB
TRACK DATA
50000 FT1000 KTAltitudeSpeed
AIRCRAFT INFORMATION
Aircraft Type: B738SSW
Registration: N37267
SELCAL:  MSN/LN: 31586 / 939
Operator: UNITED AIRLINES
Flights: 26 Block Time: 66.1 Flight Time: 59.4
Fuel Used: 394987 LB
  • DEPARTURE INFORMATION
    Date: 2019-11-17
    Airport: KIAD
    Gate: B66
    Gate Departure: 13:39
    Takeoff: 13:48
    ARRIVAL INFORMATION
    Date: 2019-11-18
    Airport: KDEN
    Gate:  -
    Landing: 17:06
    Gate Arrival: 17:18
  • FLIGHT DATA
    Crew: AARON BUCHANAN
    Speed: 461 kts Altitude: 36000 ft
    Stage Length: 680 nm
    Route: 
    Block Time: 3.7 Flight Time: 3.3
    Fuel Used: 19144 LB
  • AIRCRAFT INFORMATION
    Aircraft Type: B738SSW
    Registration: N37267
    SELCAL:  MSN/LN: 31586 / 939
    Operator: United Airlines
    Flights: 26 Block Time: 66.1 Flight Time: 59.4
    Fuel Used: 394987 LB

DATALINK LOG | Newest first | Current as of: 2020-05-31 15:43:06
LABEL ID SEQUENCE CONTENT Dn/Up
2U1558KDEN 171453Z 17008KT 10SM FEW070 FEW120 FEW220 M01/M04 A3015 RMK AO2 SLP216 T10061039 56005▲ Up
5U1547KDEN 171911Z 17010KT 10SM FEW100 M01/M04 A3015▲ Up
2S1558KDEN▼ Dn
5S1547KDEN▼ Dn
A33138CLEARED TO KDEN VIA BUNZZ3 RAMAY Q72 HACKS J149 ROD BVT PIA OVR SPAWN WAHUU2. SQUAWK 4750.▲ Up
Q02827[LINK ACK]▲ Up
Q02331[LINK TEST]▼ Dn


AIRCRAFT HISTORY